createdAt,value
2022-10-11T00:00:23.914Z,4.75
2022-10-11T00:02:52.390Z,4.65
2022-10-11T00:05:19.755Z,4.90
2022-10-11T00:07:47.073Z,4.15
2022-10-11T00:10:14.434Z,4.55
2022-10-11T00:12:42.703Z,4.78
2022-10-11T00:15:13.547Z,4.75
2022-10-11T00:17:40.841Z,4.10
2022-10-11T00:20:08.651Z,4.15
2022-10-11T00:22:37.855Z,4.07
2022-10-11T00:25:08.277Z,3.70
2022-10-11T00:27:35.810Z,3.38
2022-10-11T00:30:05.040Z,3.88
2022-10-11T00:32:35.482Z,3.90
2022-10-11T00:35:06.392Z,4.05
2022-10-11T00:37:38.872Z,4.20
2022-10-11T00:40:09.301Z,3.55
2022-10-11T00:42:36.634Z,3.78
2022-10-11T00:45:31.736Z,3.17
2022-10-11T00:48:09.092Z,4.40
2022-10-11T00:50:38.624Z,3.80
2022-10-11T00:53:12.216Z,3.88
2022-10-11T00:55:55.598Z,4.25
2022-10-11T00:58:23.628Z,4.30
2022-10-11T01:00:51.382Z,4.38
2022-10-11T01:03:23.187Z,4.57
2022-10-11T01:05:50.650Z,4.20
2022-10-11T01:08:18.368Z,4.13
2022-10-11T01:10:45.800Z,4.90
2022-10-11T01:13:37.748Z,4.68
2022-10-11T01:16:17.389Z,4.00
2022-10-11T01:19:16.404Z,4.05
2022-10-11T01:22:31.562Z,4.05
2022-10-11T01:25:21.696Z,3.88
2022-10-11T01:27:59.645Z,6.97
2022-10-11T01:30:30.225Z,4.90
2022-10-11T01:33:03.669Z,4.40
2022-10-11T01:35:48.473Z,5.32
2022-10-11T01:38:33.066Z,4.90
2022-10-11T01:41:06.409Z,4.97
2022-10-11T01:43:35.378Z,4.60
2022-10-11T01:46:04.238Z,4.90
2022-10-11T01:48:31.733Z,4.60
2022-10-11T01:51:02.402Z,5.00
2022-10-11T01:53:55.833Z,4.95
2022-10-11T01:56:48.802Z,4.10
2022-10-11T01:59:33.938Z,3.97
2022-10-11T02:02:25.713Z,3.95
2022-10-11T02:05:19.153Z,3.63
2022-10-11T02:08:15.449Z,3.53
2022-10-11T02:10:45.751Z,4.10
2022-10-11T02:13:20.218Z,4.10
2022-10-11T02:15:49.742Z,3.70
2022-10-11T02:18:32.318Z,3.92
2022-10-11T02:21:02.490Z,3.72
2022-10-11T02:23:38.060Z,4.18
2022-10-11T02:26:09.078Z,3.85
2022-10-11T02:28:39.688Z,3.80
2022-10-11T02:31:08.460Z,4.03
2022-10-11T02:33:54.035Z,4.18
2022-10-11T02:36:34.824Z,4.38
2022-10-11T02:39:11.753Z,4.38
2022-10-11T02:41:43.426Z,4.88
2022-10-11T02:44:17.023Z,4.50
2022-10-11T02:46:45.754Z,4.75
2022-10-11T02:49:14.441Z,4.50
2022-10-11T02:51:41.890Z,4.97
2022-10-11T02:54:09.132Z,4.90
2022-10-11T02:56:36.326Z,4.60
2022-10-11T02:59:03.694Z,4.80
2022-10-11T03:01:31.058Z,5.20
2022-10-11T03:03:58.241Z,5.03
2022-10-11T03:06:25.555Z,5.28
2022-10-11T03:08:52.793Z,5.00
2022-10-11T03:11:20.089Z,5.78
2022-10-11T03:13:47.248Z,5.20
2022-10-11T03:16:15.016Z,5.00
2022-10-11T03:18:42.695Z,5.70
2022-10-11T03:21:10.237Z,7.78
2022-10-11T03:23:37.468Z,6.80
2022-10-11T03:26:05.066Z,5.88
2022-10-11T03:28:32.859Z,6.00
2022-10-11T03:31:00.168Z,6.00
2022-10-11T03:33:27.325Z,5.72
2022-10-11T03:35:54.574Z,6.30
2022-10-11T03:38:23.055Z,10.13
2022-10-11T03:40:52.710Z,7.32
2022-10-11T03:43:20.042Z,6.55
2022-10-11T03:45:47.276Z,5.75
2022-10-11T03:48:14.672Z,5.82
2022-10-11T03:50:42.486Z,5.13
2022-10-11T03:53:12.248Z,5.47
2022-10-11T03:55:40.842Z,4.97
2022-10-11T03:58:09.508Z,4.80
2022-10-11T04:00:37.597Z,5.13
2022-10-11T04:03:04.841Z,5.40
2022-10-11T04:05:32.553Z,5.00
2022-10-11T04:07:59.850Z,4.50
2022-10-11T04:10:27.118Z,4.80
2022-10-11T04:12:54.313Z,4.50
2022-10-11T04:15:21.677Z,5.35
2022-10-11T04:17:48.933Z,5.55
2022-10-11T04:20:16.171Z,5.18
2022-10-11T04:22:43.386Z,5.78
2022-10-11T04:25:11.061Z,5.68
2022-10-11T04:27:38.530Z,6.05
2022-10-11T04:30:06.980Z,5.50
2022-10-11T04:32:34.328Z,5.22
2022-10-11T04:35:01.753Z,5.85
2022-10-11T04:37:29.079Z,5.13
2022-10-11T04:39:56.264Z,5.10
2022-10-11T04:42:23.621Z,5.70
2022-10-11T04:44:50.988Z,5.68
2022-10-11T04:47:18.357Z,7.30
2022-10-11T04:49:46.078Z,5.78
2022-10-11T04:52:13.356Z,4.88
2022-10-11T04:54:40.663Z,5.03
2022-10-11T04:57:08.013Z,5.22
2022-10-11T04:59:35.324Z,5.70
2022-10-11T05:02:02.595Z,5.22
2022-10-11T05:04:29.812Z,5.20
2022-10-11T05:06:57.004Z,5.22
2022-10-11T05:09:24.327Z,4.95
2022-10-11T05:11:51.564Z,5.28
2022-10-11T05:14:18.648Z,5.50
2022-10-11T05:16:45.875Z,5.28
2022-10-11T05:19:13.238Z,5.10
2022-10-11T05:21:40.501Z,5.35
2022-10-11T05:24:08.184Z,5.72
2022-10-11T05:26:35.380Z,5.30
2022-10-11T05:29:02.844Z,5.82
2022-10-11T05:31:30.189Z,5.20
2022-10-11T05:33:57.574Z,4.88
2022-10-11T05:36:24.893Z,4.65
2022-10-11T05:38:52.221Z,6.05
2022-10-11T05:41:19.394Z,8.00
2022-10-11T05:43:46.800Z,6.57
2022-10-11T05:46:14.206Z,7.13
2022-10-11T05:48:41.722Z,5.20
2022-10-11T05:51:10.554Z,5.30
2022-10-11T05:53:39.057Z,4.85
2022-10-11T05:56:17.157Z,4.70
2022-10-11T05:58:44.389Z,5.10
2022-10-11T06:01:24.162Z,5.65
2022-10-11T06:03:55.136Z,5.53
2022-10-11T06:06:23.316Z,6.40
2022-10-11T06:08:50.595Z,7.28
2022-10-11T06:11:25.435Z,6.10
2022-10-11T06:13:58.205Z,7.65
2022-10-11T06:16:26.553Z,6.75
2022-10-11T06:18:57.821Z,7.03
2022-10-11T06:21:25.791Z,6.85
2022-10-11T06:24:00.010Z,7.88
2022-10-11T06:26:28.801Z,8.10
2022-10-11T06:28:56.766Z,10.43
2022-10-11T06:31:27.544Z,10.95
2022-10-11T06:33:58.916Z,14.35
2022-10-11T06:36:26.765Z,15.55
2022-10-11T06:38:55.234Z,16.50
2022-10-11T06:41:27.441Z,16.98
2022-10-11T06:43:54.923Z,14.13
2022-10-11T06:46:24.509Z,15.27
2022-10-11T06:48:51.695Z,15.73
2022-10-11T06:51:21.868Z,18.38
2022-10-11T06:53:57.014Z,16.70
2022-10-11T06:56:25.941Z,16.77
2022-10-11T06:58:57.730Z,16.90
2022-10-11T07:01:26.453Z,14.82
2022-10-11T07:03:55.228Z,13.65
2022-10-11T07:06:24.709Z,13.15
2022-10-11T07:08:52.221Z,13.55
2022-10-11T07:11:22.546Z,12.27
2022-10-11T07:13:52.673Z,11.95
2022-10-11T07:16:21.149Z,11.52
2022-10-11T07:18:55.913Z,11.75
2022-10-11T07:21:26.980Z,9.57
2022-10-11T07:23:54.235Z,9.27
2022-10-11T07:26:21.514Z,9.73
2022-10-11T07:28:48.996Z,7.97
2022-10-11T07:31:19.629Z,6.22
2022-10-11T07:33:47.052Z,5.30
2022-10-11T07:36:15.853Z,6.30
2022-10-11T07:38:45.238Z,5.50
2022-10-11T07:41:13.251Z,6.03
2022-10-11T07:43:40.698Z,5.55
2022-10-11T07:46:08.616Z,6.00
2022-10-11T07:48:37.028Z,6.07
2022-10-11T07:51:16.021Z,6.13
2022-10-11T07:53:47.050Z,5.45
2022-10-11T07:56:20.508Z,6.00
2022-10-11T07:59:01.617Z,5.32
2022-10-11T08:01:29.942Z,3.95
2022-10-11T08:03:57.913Z,3.67
2022-10-11T08:06:29.520Z,4.32
2022-10-11T08:09:00.023Z,4.75
2022-10-11T08:11:30.552Z,6.38
2022-10-11T08:13:59.408Z,7.28
2022-10-11T08:16:26.905Z,7.07
2022-10-11T08:18:57.050Z,8.38
2022-10-11T08:21:25.121Z,8.82
2022-10-11T08:23:53.511Z,8.13
2022-10-11T08:26:21.142Z,6.75
2022-10-11T08:28:48.764Z,6.20
2022-10-11T08:31:16.999Z,5.82
2022-10-11T08:33:44.499Z,5.80
2022-10-11T08:36:12.561Z,5.43
2022-10-11T08:38:40.515Z,4.70
2022-10-11T08:41:28.984Z,4.97
2022-10-11T08:44:20.978Z,4.65
2022-10-11T08:46:56.872Z,5.03
2022-10-11T08:49:32.175Z,4.75
2022-10-11T08:52:04.794Z,4.20
2022-10-11T08:54:37.348Z,4.57
2022-10-11T08:57:11.591Z,4.05
2022-10-11T08:59:51.299Z,4.43
2022-10-11T09:02:55.486Z,4.95
2022-10-11T09:05:26.069Z,3.83
2022-10-11T09:08:47.350Z,4.40
2022-10-11T09:11:26.532Z,4.32
2022-10-11T09:14:07.802Z,4.13
2022-10-11T09:16:55.634Z,4.05
2022-10-11T09:19:44.746Z,4.60
2022-10-11T09:22:20.118Z,4.15
2022-10-11T09:25:15.447Z,4.07
2022-10-11T09:28:12.222Z,8.75
2022-10-11T09:30:48.846Z,4.20
2022-10-11T09:33:38.871Z,4.07
2022-10-11T09:36:29.031Z,4.22
2022-10-11T09:39:10.375Z,4.10
2022-10-11T09:41:45.595Z,3.80
2022-10-11T09:44:27.557Z,4.85
2022-10-11T09:47:12.602Z,3.95
2022-10-11T09:49:50.847Z,5.13
2022-10-11T09:52:21.448Z,3.63
2022-10-11T09:54:51.848Z,3.63
2022-10-11T09:57:54.573Z,3.90
2022-10-11T10:00:27.516Z,4.25
2022-10-11T10:02:57.646Z,3.58
2022-10-11T10:05:30.663Z,3.78
2022-10-11T10:08:04.309Z,3.97
2022-10-11T10:10:39.126Z,4.10
2022-10-11T10:13:44.499Z,4.20
2022-10-11T10:16:26.674Z,3.92
2022-10-11T10:18:57.896Z,3.70
2022-10-11T10:21:38.022Z,3.90
2022-10-11T10:24:18.518Z,3.83
2022-10-11T10:27:07.237Z,3.72
2022-10-11T10:29:36.044Z,3.85
2022-10-11T10:32:23.481Z,5.50
2022-10-11T10:35:13.585Z,3.33
2022-10-11T10:37:52.448Z,3.88
2022-10-11T10:40:28.097Z,3.53
2022-10-11T10:42:56.407Z,4.40
2022-10-11T10:45:32.865Z,3.70
2022-10-11T10:48:16.257Z,3.90
2022-10-11T10:51:28.389Z,3.67
2022-10-11T10:54:26.936Z,2.90
2022-10-11T10:57:00.530Z,3.28
2022-10-11T10:59:30.749Z,2.70
2022-10-11T11:02:38.921Z,2.70
2022-10-11T11:05:21.754Z,2.63
2022-10-11T11:08:02.319Z,2.38
2022-10-11T11:11:01.265Z,2.50
2022-10-11T11:13:32.426Z,2.17
2022-10-11T11:16:12.472Z,2.28
2022-10-11T11:18:51.214Z,2.63
2022-10-11T11:21:32.049Z,2.67
2022-10-11T11:24:13.568Z,2.17
2022-10-11T11:26:55.848Z,2.38
2022-10-11T11:29:41.448Z,2.55
2022-10-11T11:32:44.793Z,2.50
2022-10-11T11:35:31.012Z,2.17
2022-10-11T11:38:06.501Z,2.78
2022-10-11T11:40:41.277Z,2.42
2022-10-11T11:43:35.289Z,2.85
2022-10-11T11:46:24.962Z,2.65
2022-10-11T11:49:02.764Z,2.42
2022-10-11T11:51:46.086Z,2.63
2022-10-11T11:54:43.881Z,2.30
2022-10-11T11:57:34.281Z,2.05
2022-10-11T12:00:15.017Z,2.78
2022-10-11T12:05:26.064Z,2.70
2022-10-11T12:08:27.322Z,2.65
2022-10-11T12:10:59.713Z,3.45
2022-10-11T12:13:47.247Z,3.35
2022-10-11T12:16:16.775Z,2.85
2022-10-11T12:19:04.196Z,3.80
2022-10-11T12:21:41.143Z,3.33
2022-10-11T12:24:20.215Z,3.75
2022-10-11T12:26:49.045Z,4.40
2022-10-11T12:29:19.386Z,3.60
2022-10-11T12:32:11.366Z,4.60
2022-10-11T12:37:18.916Z,2.70
2022-10-11T12:39:55.102Z,6.60
2022-10-11T12:42:26.589Z,3.00
2022-10-11T12:45:14.720Z,3.70
2022-10-11T12:47:52.505Z,3.30
2022-10-11T12:50:31.765Z,2.50
2022-10-11T12:53:30.085Z,2.92
2022-10-11T12:56:12.327Z,3.10
2022-10-11T12:58:45.134Z,4.55
2022-10-11T13:01:15.406Z,3.22
2022-10-11T13:03:46.938Z,2.53
2022-10-11T13:06:50.951Z,3.20
2022-10-11T13:09:26.126Z,2.47
2022-10-11T13:11:58.954Z,3.13
2022-10-11T13:14:29.374Z,2.40
2022-10-11T13:17:06.298Z,2.83
2022-10-11T13:19:36.868Z,2.55
2022-10-11T13:22:17.333Z,3.20
2022-10-11T13:24:46.531Z,3.78
2022-10-11T13:27:27.222Z,3.60
2022-10-11T13:29:59.754Z,2.20
2022-10-11T13:32:30.775Z,2.75
2022-10-11T13:35:03.543Z,2.53
2022-10-11T13:37:37.857Z,2.40
2022-10-11T13:40:05.829Z,2.60
2022-10-11T13:42:36.777Z,4.50
2022-10-11T13:45:04.752Z,3.20
2022-10-11T13:47:33.782Z,2.40
2022-10-11T13:50:09.407Z,4.15
2022-10-11T13:52:36.702Z,3.22
2022-10-11T13:55:03.807Z,3.05
2022-10-11T13:57:44.908Z,3.33
2022-10-11T14:00:17.532Z,2.65
2022-10-11T14:03:07.815Z,2.75
2022-10-11T14:05:35.069Z,3.75
2022-10-11T14:08:19.741Z,4.30
2022-10-11T14:10:50.736Z,6.20
2022-10-11T14:13:37.795Z,3.58
2022-10-11T14:16:09.916Z,3.05
2022-10-11T14:18:37.177Z,3.35
2022-10-11T14:21:19.812Z,2.85
2022-10-11T14:23:47.611Z,3.10
2022-10-11T14:26:18.675Z,3.67
2022-10-11T14:31:16.625Z,3.00
2022-10-11T14:33:43.865Z,3.15
2022-10-11T14:36:11.043Z,3.50
2022-10-11T14:38:38.171Z,3.22
2022-10-11T14:41:05.337Z,3.55
2022-10-11T14:43:33.326Z,3.80
2022-10-11T14:46:01.634Z,4.05
2022-10-11T14:48:53.714Z,3.30
2022-10-11T14:51:21.276Z,3.65
2022-10-11T14:54:03.598Z,5.68
2022-10-11T14:56:31.539Z,4.70
2022-10-11T14:59:10.793Z,4.00
2022-10-11T15:01:39.205Z,4.00
2022-10-11T15:04:07.354Z,4.20
2022-10-11T15:06:38.809Z,4.07
2022-10-11T15:09:07.533Z,3.70
2022-10-11T15:11:36.588Z,4.05
2022-10-11T15:14:04.512Z,5.95
2022-10-11T15:16:32.214Z,4.18
2022-10-11T15:18:59.446Z,6.38
2022-10-11T15:21:28.586Z,4.10
2022-10-11T15:23:56.821Z,4.72
2022-10-11T15:26:27.529Z,4.25
2022-10-11T15:28:57.378Z,4.15
2022-10-11T15:31:24.781Z,4.25
2022-10-11T15:33:52.487Z,4.35
2022-10-11T15:36:22.428Z,4.82
2022-10-11T15:38:50.143Z,4.95
2022-10-11T15:41:19.114Z,5.50
2022-10-11T15:43:48.209Z,4.07
2022-10-11T15:46:30.546Z,4.13
2022-10-11T15:48:57.824Z,5.18
2022-10-11T15:51:25.058Z,5.18
2022-10-11T15:53:52.254Z,5.22
2022-10-11T15:56:19.810Z,4.47
2022-10-11T15:58:48.137Z,5.40
2022-10-11T16:01:18.530Z,5.90
2022-10-11T16:03:47.950Z,5.47
2022-10-11T16:06:16.278Z,4.50
2022-10-11T16:08:43.586Z,5.80
2022-10-11T16:11:12.251Z,5.75
2022-10-11T16:13:39.701Z,5.30
2022-10-11T16:16:09.257Z,5.15
2022-10-11T16:18:37.125Z,6.32
2022-10-11T16:21:10.306Z,5.03
2022-10-11T16:23:38.403Z,5.47
2022-10-11T16:26:09.577Z,6.03
2022-10-11T16:28:38.061Z,6.28
2022-10-11T16:31:16.981Z,5.45
2022-10-11T16:33:46.503Z,7.03
2022-10-11T16:36:51.739Z,6.97
2022-10-11T16:39:19.953Z,7.90
2022-10-11T16:41:47.439Z,5.40
2022-10-11T16:44:17.632Z,6.13
2022-10-11T16:46:48.458Z,6.05
2022-10-11T16:49:17.170Z,6.28
2022-10-11T16:51:44.711Z,5.47
2022-10-11T16:54:13.721Z,10.43
2022-10-11T16:56:43.073Z,5.65
2022-10-11T16:59:11.199Z,5.88
2022-10-11T17:01:39.918Z,4.80
2022-10-11T17:04:07.139Z,5.25
2022-10-11T17:06:35.162Z,4.85
2022-10-11T17:09:03.205Z,6.18
2022-10-11T17:11:30.649Z,4.97
2022-10-11T17:13:59.827Z,5.20
2022-10-11T17:16:27.463Z,5.97
2022-10-11T17:18:54.868Z,5.22
2022-10-11T17:21:22.557Z,6.32
2022-10-11T17:23:50.523Z,7.13
2022-10-11T17:26:26.417Z,7.05
2022-10-11T17:29:03.019Z,7.80
2022-10-11T17:31:31.151Z,7.05
2022-10-11T17:34:00.130Z,8.15
2022-10-11T17:36:35.111Z,8.95
2022-10-11T17:39:05.763Z,23.10
2022-10-11T17:41:34.361Z,16.42
2022-10-11T17:44:03.301Z,14.25
2022-10-11T17:46:33.056Z,13.93
2022-10-11T17:49:02.193Z,13.18
2022-10-11T17:51:30.066Z,8.82
2022-10-11T17:53:57.363Z,7.07
2022-10-11T17:56:30.401Z,32.80
2022-10-11T17:59:00.085Z,33.22
2022-10-11T18:01:29.397Z,40.00
2022-10-11T18:04:02.077Z,34.33
2022-10-11T18:06:32.111Z,28.45
2022-10-11T18:09:03.514Z,13.10
2022-10-11T18:11:35.582Z,20.88
2022-10-11T18:14:03.076Z,6.65
2022-10-11T18:16:33.260Z,9.30
2022-10-11T18:19:03.444Z,13.23
2022-10-11T18:21:34.653Z,8.38
2022-10-11T18:24:13.474Z,6.28
2022-10-11T18:26:41.655Z,14.90
2022-10-11T18:29:09.707Z,11.52
2022-10-11T18:31:37.027Z,11.63
2022-10-11T18:34:10.929Z,7.88
2022-10-11T18:36:38.837Z,7.60
2022-10-11T18:39:08.912Z,7.32
2022-10-11T18:41:38.052Z,8.43
2022-10-11T18:44:08.818Z,16.95
2022-10-11T18:46:36.656Z,35.05
2022-10-11T18:49:09.027Z,33.38
2022-10-11T18:51:39.365Z,38.30
2022-10-11T18:54:08.594Z,28.95
2022-10-11T18:56:37.112Z,15.52
2022-10-11T18:59:05.681Z,19.13
2022-10-11T19:01:39.963Z,26.95
2022-10-11T19:04:10.793Z,22.08
2022-10-11T19:06:40.720Z,18.05
2022-10-11T19:09:21.987Z,35.50
2022-10-11T19:12:09.117Z,13.98
2022-10-11T19:14:36.426Z,20.67
2022-10-11T19:17:03.582Z,19.10
2022-10-11T19:19:35.704Z,32.00
2022-10-11T19:22:04.990Z,42.22
2022-10-11T19:24:32.465Z,35.63
2022-10-11T19:27:02.728Z,9.52
2022-10-11T19:29:30.721Z,21.08
2022-10-11T19:32:02.903Z,11.43
2022-10-11T19:34:32.892Z,46.42
2022-10-11T19:37:01.468Z,27.15
2022-10-11T19:39:29.653Z,10.35
2022-10-11T19:41:56.757Z,33.08
2022-10-11T19:44:24.001Z,18.35
2022-10-11T19:46:52.771Z,111.18
2022-10-11T19:49:24.223Z,19.75
2022-10-11T19:51:52.543Z,27.97
2022-10-11T19:54:20.021Z,7.88
2022-10-11T19:56:49.840Z,14.10
2022-10-11T19:59:17.213Z,19.92
2022-10-11T20:01:57.602Z,13.75
2022-10-11T20:04:52.052Z,11.00
2022-10-11T20:07:30.871Z,13.45
2022-10-11T20:09:58.658Z,22.15
2022-10-11T20:12:29.456Z,36.60
2022-10-11T20:14:58.304Z,23.43
2022-10-11T20:17:45.619Z,12.60
2022-10-11T20:20:14.033Z,9.30
2022-10-11T20:22:41.314Z,8.65
2022-10-11T20:25:09.070Z,20.52
2022-10-11T20:27:36.359Z,15.95
2022-10-11T20:30:04.377Z,12.65
2022-10-11T20:32:31.579Z,7.13
2022-10-11T20:34:58.910Z,8.35
2022-10-11T20:37:29.164Z,48.85
2022-10-11T20:39:56.396Z,56.92
2022-10-11T20:42:28.865Z,24.92
2022-10-11T20:44:59.333Z,15.55
2022-10-11T20:47:26.517Z,15.50
2022-10-11T20:49:58.616Z,12.93
2022-10-11T20:52:26.341Z,13.52
2022-10-11T20:54:54.373Z,11.90
2022-10-11T20:57:21.595Z,7.47
2022-10-11T20:59:49.379Z,6.95
2022-10-11T21:02:19.366Z,5.85
2022-10-11T21:04:55.338Z,6.55
2022-10-11T21:07:22.503Z,6.25
2022-10-11T21:09:49.717Z,7.10
2022-10-11T21:12:16.921Z,15.90
2022-10-11T21:14:45.287Z,12.18
2022-10-11T21:17:12.639Z,6.22
2022-10-11T21:19:39.900Z,5.68
2022-10-11T21:22:07.021Z,6.60
2022-10-11T21:24:34.305Z,9.30
2022-10-11T21:27:07.302Z,6.65
2022-10-11T21:29:34.613Z,21.05
2022-10-11T21:32:01.881Z,13.45
2022-10-11T21:34:29.015Z,8.10
2022-10-11T21:36:56.235Z,7.32
2022-10-11T21:39:23.421Z,6.72
2022-10-11T21:41:50.653Z,6.75
2022-10-11T21:44:18.028Z,6.28
2022-10-11T21:47:06.050Z,6.40
2022-10-11T21:49:32.462Z,6.18
2022-10-11T21:52:00.182Z,6.25
2022-10-11T21:54:28.210Z,6.18
2022-10-11T21:56:55.503Z,6.78
2022-10-11T21:59:22.719Z,6.78
2022-10-11T22:01:50.077Z,8.20
2022-10-11T22:04:17.303Z,16.27
2022-10-11T22:06:45.085Z,19.73
2022-10-11T22:09:12.301Z,11.05
2022-10-11T22:11:39.501Z,7.70
2022-10-11T22:14:06.716Z,7.10
2022-10-11T22:16:34.714Z,6.88
2022-10-11T22:19:01.990Z,7.25
2022-10-11T22:21:29.233Z,7.82
2022-10-11T22:23:56.810Z,8.57
2022-10-11T22:26:30.914Z,7.20
2022-10-11T22:28:59.832Z,7.57
2022-10-11T22:31:27.550Z,7.18
2022-10-11T22:33:56.383Z,7.03
2022-10-11T22:36:26.497Z,7.95
2022-10-11T22:38:54.672Z,7.55
2022-10-11T22:41:22.131Z,7.75
2022-10-11T22:43:49.635Z,6.60
2022-10-11T22:46:17.185Z,6.80
2022-10-11T22:48:44.285Z,7.45
2022-10-11T22:51:11.511Z,7.13
2022-10-11T22:53:39.217Z,6.15
2022-10-11T22:56:06.737Z,7.65
2022-10-11T22:58:33.869Z,6.88
2022-10-11T23:01:12.943Z,6.88
2022-10-11T23:03:40.428Z,7.22
2022-10-11T23:06:08.080Z,7.40
2022-10-11T23:08:35.269Z,6.32
2022-10-11T23:11:04.546Z,7.30
2022-10-11T23:13:31.718Z,6.30
2022-10-11T23:15:58.889Z,6.43
2022-10-11T23:18:26.209Z,7.28
2022-10-11T23:20:53.384Z,7.40
2022-10-11T23:23:20.569Z,7.22
2022-10-11T23:25:47.693Z,7.63
2022-10-11T23:28:15.179Z,7.22
2022-10-11T23:30:42.408Z,7.32
2022-10-11T23:33:09.537Z,6.75
2022-10-11T23:35:38.257Z,7.00
2022-10-11T23:38:05.345Z,7.13
2022-10-11T23:40:32.649Z,6.97
2022-10-11T23:42:59.844Z,6.47
2022-10-11T23:45:26.929Z,6.32
2022-10-11T23:47:54.147Z,6.82
2022-10-11T23:50:21.389Z,6.63
2022-10-11T23:52:48.575Z,6.70
2022-10-11T23:55:15.881Z,7.07
2022-10-11T23:57:43.057Z,6.72
